sensor_id;sensor_type;location;lat;lon;timestamp;P1;durP1;ratioP1;P2;durP2;ratioP2
61696;SDS011;47610;52.252;20.922;2023-03-12T00:00:08;17.50;;;5.00;;
61696;SDS011;47610;52.252;20.922;2023-03-12T00:05:17;9.90;;;4.50;;
61696;SDS011;47610;52.252;20.922;2023-03-12T00:10:21;9.40;;;4.80;;
61696;SDS011;47610;52.252;20.922;2023-03-12T00:15:24;9.20;;;5.00;;
61696;SDS011;47610;52.252;20.922;2023-03-12T00:20:29;8.80;;;5.20;;
61696;SDS011;47610;52.252;20.922;2023-03-12T00:30:37;9.90;;;5.30;;
61696;SDS011;47610;52.252;20.922;2023-03-12T00:35:40;8.00;;;5.20;;
61696;SDS011;47610;52.252;20.922;2023-03-12T00:40:43;11.40;;;6.50;;
61696;SDS011;47610;52.252;20.922;2023-03-12T00:45:48;9.00;;;5.60;;
61696;SDS011;47610;52.252;20.922;2023-03-12T00:50:51;8.30;;;5.50;;
61696;SDS011;47610;52.252;20.922;2023-03-12T00:55:55;7.30;;;4.60;;
61696;SDS011;47610;52.252;20.922;2023-03-12T01:00:58;10.90;;;6.40;;
61696;SDS011;47610;52.252;20.922;2023-03-12T01:06:03;9.60;;;6.30;;
61696;SDS011;47610;52.252;20.922;2023-03-12T01:11:07;10.70;;;6.90;;
61696;SDS011;47610;52.252;20.922;2023-03-12T01:16:17;11.50;;;6.80;;
61696;SDS011;47610;52.252;20.922;2023-03-12T01:21:21;13.50;;;7.60;;
61696;SDS011;47610;52.252;20.922;2023-03-12T01:26:28;12.60;;;6.40;;
61696;SDS011;47610;52.252;20.922;2023-03-12T01:31:32;11.30;;;6.60;;
61696;SDS011;47610;52.252;20.922;2023-03-12T01:36:35;13.60;;;7.60;;
61696;SDS011;47610;52.252;20.922;2023-03-12T01:41:39;13.00;;;7.20;;
61696;SDS011;47610;52.252;20.922;2023-03-12T01:46:43;12.70;;;6.80;;
61696;SDS011;47610;52.252;20.922;2023-03-12T01:51:50;12.50;;;6.70;;
61696;SDS011;47610;52.252;20.922;2023-03-12T01:56:59;9.30;;;5.90;;
61696;SDS011;47610;52.252;20.922;2023-03-12T02:02:05;10.40;;;7.00;;
61696;SDS011;47610;52.252;20.922;2023-03-12T02:07:11;11.00;;;6.30;;
61696;SDS011;47610;52.252;20.922;2023-03-12T02:12:17;12.90;;;7.30;;
61696;SDS011;47610;52.252;20.922;2023-03-12T02:17:20;10.60;;;6.80;;
61696;SDS011;47610;52.252;20.922;2023-03-12T02:22:24;11.50;;;6.70;;
61696;SDS011;47610;52.252;20.922;2023-03-12T02:32:34;13.30;;;6.60;;
61696;SDS011;47610;52.252;20.922;2023-03-12T02:37:47;10.30;;;6.40;;
61696;SDS011;47610;52.252;20.922;2023-03-12T02:42:54;10.80;;;5.90;;
61696;SDS011;47610;52.252;20.922;2023-03-12T02:47:59;9.70;;;5.70;;
61696;SDS011;47610;52.252;20.922;2023-03-12T02:53:09;10.60;;;6.30;;
61696;SDS011;47610;52.252;20.922;2023-03-12T02:58:13;10.30;;;6.00;;
61696;SDS011;47610;52.252;20.922;2023-03-12T03:03:16;11.20;;;6.40;;
61696;SDS011;47610;52.252;20.922;2023-03-12T03:08:19;10.20;;;5.80;;
61696;SDS011;47610;52.252;20.922;2023-03-12T03:13:22;12.10;;;6.00;;
61696;SDS011;47610;52.252;20.922;2023-03-12T03:18:26;10.30;;;5.20;;
61696;SDS011;47610;52.252;20.922;2023-03-12T03:23:30;11.20;;;5.80;;
61696;SDS011;47610;52.252;20.922;2023-03-12T03:28:35;5.70;;;3.50;;
61696;SDS011;47610;52.252;20.922;2023-03-12T03:33:40;8.90;;;4.90;;
61696;SDS011;47610;52.252;20.922;2023-03-12T03:38:44;7.80;;;4.50;;
61696;SDS011;47610;52.252;20.922;2023-03-12T03:43:48;9.70;;;5.40;;
61696;SDS011;47610;52.252;20.922;2023-03-12T03:48:51;7.70;;;5.10;;
61696;SDS011;47610;52.252;20.922;2023-03-12T03:53:54;8.60;;;5.20;;
61696;SDS011;47610;52.252;20.922;2023-03-12T03:58:59;8.00;;;5.30;;
61696;SDS011;47610;52.252;20.922;2023-03-12T04:04:03;7.40;;;4.70;;
61696;SDS011;47610;52.252;20.922;2023-03-12T04:09:06;8.70;;;6.00;;
61696;SDS011;47610;52.252;20.922;2023-03-12T04:14:11;9.00;;;6.10;;
61696;SDS011;47610;52.252;20.922;2023-03-12T04:19:14;8.30;;;4.10;;
61696;SDS011;47610;52.252;20.922;2023-03-12T04:24:17;8.10;;;5.60;;
61696;SDS011;47610;52.252;20.922;2023-03-12T04:29:20;8.90;;;5.80;;
61696;SDS011;47610;52.252;20.922;2023-03-12T04:34:24;9.90;;;5.70;;
61696;SDS011;47610;52.252;20.922;2023-03-12T04:39:27;7.70;;;5.10;;
61696;SDS011;47610;52.252;20.922;2023-03-12T04:44:31;5.90;;;3.90;;
61696;SDS011;47610;52.252;20.922;2023-03-12T04:49:35;10.10;;;4.50;;
61696;SDS011;47610;52.252;20.922;2023-03-12T04:54:39;6.30;;;4.70;;
61696;SDS011;47610;52.252;20.922;2023-03-12T04:59:43;7.80;;;4.90;;
61696;SDS011;47610;52.252;20.922;2023-03-12T05:04:46;7.40;;;4.40;;
61696;SDS011;47610;52.252;20.922;2023-03-12T05:09:49;8.30;;;4.90;;
61696;SDS011;47610;52.252;20.922;2023-03-12T05:14:53;7.30;;;4.70;;
61696;SDS011;47610;52.252;20.922;2023-03-12T05:19:56;5.60;;;4.30;;
61696;SDS011;47610;52.252;20.922;2023-03-12T05:25:01;5.20;;;4.00;;
61696;SDS011;47610;52.252;20.922;2023-03-12T05:30:13;8.20;;;4.30;;
61696;SDS011;47610;52.252;20.922;2023-03-12T05:35:21;9.90;;;5.50;;
61696;SDS011;47610;52.252;20.922;2023-03-12T05:40:25;5.60;;;3.80;;
61696;SDS011;47610;52.252;20.922;2023-03-12T05:45:28;8.50;;;4.70;;
61696;SDS011;47610;52.252;20.922;2023-03-12T05:50:34;6.70;;;4.30;;
61696;SDS011;47610;52.252;20.922;2023-03-12T05:55:38;5.80;;;4.00;;
61696;SDS011;47610;52.252;20.922;2023-03-12T06:00:42;7.40;;;4.20;;
61696;SDS011;47610;52.252;20.922;2023-03-12T06:05:46;6.80;;;4.00;;
61696;SDS011;47610;52.252;20.922;2023-03-12T06:10:51;8.30;;;4.60;;
61696;SDS011;47610;52.252;20.922;2023-03-12T06:15:55;6.20;;;3.70;;
61696;SDS011;47610;52.252;20.922;2023-03-12T06:21:10;7.30;;;4.60;;
61696;SDS011;47610;52.252;20.922;2023-03-12T06:26:16;8.00;;;4.20;;
61696;SDS011;47610;52.252;20.922;2023-03-12T06:31:21;8.60;;;4.40;;
61696;SDS011;47610;52.252;20.922;2023-03-12T06:36:28;5.20;;;3.80;;
61696;SDS011;47610;52.252;20.922;2023-03-12T06:41:31;5.10;;;3.30;;
61696;SDS011;47610;52.252;20.922;2023-03-12T06:46:34;5.40;;;2.90;;
61696;SDS011;47610;52.252;20.922;2023-03-12T06:51:38;4.80;;;3.30;;
61696;SDS011;47610;52.252;20.922;2023-03-12T06:56:41;7.90;;;3.60;;
61696;SDS011;47610;52.252;20.922;2023-03-12T07:01:44;6.90;;;4.20;;
61696;SDS011;47610;52.252;20.922;2023-03-12T07:06:47;6.30;;;3.60;;
61696;SDS011;47610;52.252;20.922;2023-03-12T07:11:51;6.80;;;3.50;;
61696;SDS011;47610;52.252;20.922;2023-03-12T07:16:54;4.60;;;2.90;;
61696;SDS011;47610;52.252;20.922;2023-03-12T07:21:57;5.50;;;4.10;;
61696;SDS011;47610;52.252;20.922;2023-03-12T07:27:02;4.70;;;2.90;;
61696;SDS011;47610;52.252;20.922;2023-03-12T07:32:06;5.00;;;3.10;;
61696;SDS011;47610;52.252;20.922;2023-03-12T07:37:10;7.10;;;2.70;;
61696;SDS011;47610;52.252;20.922;2023-03-12T07:42:13;5.30;;;2.30;;
61696;SDS011;47610;52.252;20.922;2023-03-12T07:47:17;4.20;;;2.10;;
61696;SDS011;47610;52.252;20.922;2023-03-12T07:52:21;3.50;;;1.60;;
61696;SDS011;47610;52.252;20.922;2023-03-12T07:57:26;3.10;;;1.50;;
61696;SDS011;47610;52.252;20.922;2023-03-12T08:02:31;3.90;;;1.70;;
61696;SDS011;47610;52.252;20.922;2023-03-12T08:07:35;4.40;;;1.70;;
61696;SDS011;47610;52.252;20.922;2023-03-12T08:12:40;5.10;;;1.80;;
61696;SDS011;47610;52.252;20.922;2023-03-12T08:17:45;5.10;;;1.80;;
61696;SDS011;47610;52.252;20.922;2023-03-12T08:22:51;4.70;;;1.50;;
61696;SDS011;47610;52.252;20.922;2023-03-12T08:27:54;3.30;;;1.50;;
61696;SDS011;47610;52.252;20.922;2023-03-12T08:32:58;4.60;;;1.40;;
61696;SDS011;47610;52.252;20.922;2023-03-12T08:38:01;2.80;;;1.10;;
61696;SDS011;47610;52.252;20.922;2023-03-12T08:43:06;4.20;;;1.30;;
61696;SDS011;47610;52.252;20.922;2023-03-12T08:48:10;4.40;;;1.20;;
61696;SDS011;47610;52.252;20.922;2023-03-12T08:53:13;3.50;;;1.30;;
61696;SDS011;47610;52.252;20.922;2023-03-12T08:58:18;7.20;;;1.60;;
61696;SDS011;47610;52.252;20.922;2023-03-12T09:03:21;2.40;;;1.30;;
61696;SDS011;47610;52.252;20.922;2023-03-12T09:08:27;3.80;;;1.40;;
61696;SDS011;47610;52.252;20.922;2023-03-12T09:13:44;4.40;;;1.20;;
61696;SDS011;47610;52.252;20.922;2023-03-12T09:18:51;3.20;;;1.10;;
61696;SDS011;47610;52.252;20.922;2023-03-12T09:23:56;3.60;;;1.40;;
61696;SDS011;47610;52.252;20.922;2023-03-12T09:28:59;3.20;;;0.90;;
61696;SDS011;47610;52.252;20.922;2023-03-12T09:34:04;4.20;;;1.10;;
61696;SDS011;47610;52.252;20.922;2023-03-12T09:39:07;3.70;;;0.90;;
61696;SDS011;47610;52.252;20.922;2023-03-12T09:44:12;1.70;;;0.80;;
61696;SDS011;47610;52.252;20.922;2023-03-12T09:49:25;3.60;;;0.80;;
61696;SDS011;47610;52.252;20.922;2023-03-12T09:54:35;2.60;;;0.80;;
61696;SDS011;47610;52.252;20.922;2023-03-12T09:59:44;6.50;;;1.40;;
61696;SDS011;47610;52.252;20.922;2023-03-12T10:04:48;3.20;;;1.10;;
61696;SDS011;47610;52.252;20.922;2023-03-12T10:10:00;2.70;;;1.00;;
61696;SDS011;47610;52.252;20.922;2023-03-12T10:15:20;4.20;;;1.40;;
61696;SDS011;47610;52.252;20.922;2023-03-12T10:26:06;3.10;;;1.20;;
61696;SDS011;47610;52.252;20.922;2023-03-12T10:31:17;5.30;;;1.80;;
61696;SDS011;47610;52.252;20.922;2023-03-12T10:36:27;4.60;;;1.50;;
61696;SDS011;47610;52.252;20.922;2023-03-12T10:41:36;3.90;;;1.50;;
61696;SDS011;47610;52.252;20.922;2023-03-12T10:46:57;3.30;;;1.20;;
61696;SDS011;47610;52.252;20.922;2023-03-12T10:52:15;3.50;;;1.40;;
61696;SDS011;47610;52.252;20.922;2023-03-12T10:57:20;4.40;;;1.50;;
61696;SDS011;47610;52.252;20.922;2023-03-12T11:02:39;3.90;;;1.30;;
61696;SDS011;47610;52.252;20.922;2023-03-12T11:07:45;3.60;;;1.60;;
61696;SDS011;47610;52.252;20.922;2023-03-12T11:12:54;4.10;;;1.60;;
61696;SDS011;47610;52.252;20.922;2023-03-12T11:23:27;3.70;;;1.50;;
61696;SDS011;47610;52.252;20.922;2023-03-12T11:28:35;5.50;;;1.30;;
61696;SDS011;47610;52.252;20.922;2023-03-12T11:33:40;4.00;;;1.40;;
61696;SDS011;47610;52.252;20.922;2023-03-12T11:38:47;4.50;;;1.60;;
61696;SDS011;47610;52.252;20.922;2023-03-12T11:43:58;4.70;;;1.20;;
61696;SDS011;47610;52.252;20.922;2023-03-12T11:49:16;2.40;;;1.30;;
61696;SDS011;47610;52.252;20.922;2023-03-12T11:54:36;2.10;;;0.90;;
61696;SDS011;47610;52.252;20.922;2023-03-12T12:00:09;2.80;;;1.10;;
61696;SDS011;47610;52.252;20.922;2023-03-12T12:05:22;1.60;;;0.80;;
61696;SDS011;47610;52.252;20.922;2023-03-12T12:10:34;3.70;;;1.20;;
61696;SDS011;47610;52.252;20.922;2023-03-12T12:15:45;3.00;;;1.20;;
61696;SDS011;47610;52.252;20.922;2023-03-12T12:20:57;4.30;;;1.30;;
61696;SDS011;47610;52.252;20.922;2023-03-12T12:26:09;3.00;;;1.20;;
61696;SDS011;47610;52.252;20.922;2023-03-12T12:36:45;4.80;;;1.50;;
61696;SDS011;47610;52.252;20.922;2023-03-12T12:41:54;3.00;;;1.10;;
61696;SDS011;47610;52.252;20.922;2023-03-12T12:47:02;3.70;;;1.40;;
61696;SDS011;47610;52.252;20.922;2023-03-12T12:52:12;5.60;;;2.60;;
61696;SDS011;47610;52.252;20.922;2023-03-12T12:57:19;6.10;;;1.60;;
61696;SDS011;47610;52.252;20.922;2023-03-12T13:02:27;3.70;;;1.20;;
61696;SDS011;47610;52.252;20.922;2023-03-12T13:07:35;3.10;;;1.40;;
61696;SDS011;47610;52.252;20.922;2023-03-12T13:12:46;2.60;;;1.20;;
61696;SDS011;47610;52.252;20.922;2023-03-12T13:18:03;4.90;;;1.50;;
61696;SDS011;47610;52.252;20.922;2023-03-12T13:23:28;2.90;;;1.40;;
61696;SDS011;47610;52.252;20.922;2023-03-12T13:28:54;4.30;;;1.60;;
61696;SDS011;47610;52.252;20.922;2023-03-12T13:34:27;2.40;;;1.30;;
61696;SDS011;47610;52.252;20.922;2023-03-12T13:39:45;4.00;;;1.50;;
61696;SDS011;47610;52.252;20.922;2023-03-12T13:44:48;5.10;;;1.80;;
61696;SDS011;47610;52.252;20.922;2023-03-12T13:49:53;4.60;;;1.70;;
61696;SDS011;47610;52.252;20.922;2023-03-12T13:55:01;3.10;;;1.50;;
61696;SDS011;47610;52.252;20.922;2023-03-12T14:00:23;4.50;;;1.80;;
61696;SDS011;47610;52.252;20.922;2023-03-12T14:05:31;4.60;;;1.70;;
61696;SDS011;47610;52.252;20.922;2023-03-12T14:10:50;6.00;;;1.90;;
61696;SDS011;47610;52.252;20.922;2023-03-12T14:16:06;6.00;;;2.10;;
61696;SDS011;47610;52.252;20.922;2023-03-12T14:21:22;3.10;;;1.70;;
61696;SDS011;47610;52.252;20.922;2023-03-12T14:26:32;3.10;;;1.80;;
61696;SDS011;47610;52.252;20.922;2023-03-12T14:31:39;4.00;;;1.60;;
61696;SDS011;47610;52.252;20.922;2023-03-12T14:36:45;3.50;;;1.50;;
61696;SDS011;47610;52.252;20.922;2023-03-12T14:41:59;3.70;;;1.80;;
61696;SDS011;47610;52.252;20.922;2023-03-12T14:47:04;3.10;;;1.40;;
61696;SDS011;47610;52.252;20.922;2023-03-12T14:52:11;3.60;;;1.60;;
61696;SDS011;47610;52.252;20.922;2023-03-12T14:57:21;3.60;;;1.90;;
61696;SDS011;47610;52.252;20.922;2023-03-12T15:02:25;5.10;;;1.90;;
61696;SDS011;47610;52.252;20.922;2023-03-12T15:07:33;4.50;;;1.90;;
61696;SDS011;47610;52.252;20.922;2023-03-12T15:12:37;3.60;;;1.80;;
61696;SDS011;47610;52.252;20.922;2023-03-12T15:17:40;11.70;;;5.80;;
61696;SDS011;47610;52.252;20.922;2023-03-12T15:22:44;4.50;;;2.00;;
61696;SDS011;47610;52.252;20.922;2023-03-12T15:27:49;3.00;;;1.90;;
61696;SDS011;47610;52.252;20.922;2023-03-12T15:33:08;4.80;;;1.90;;
61696;SDS011;47610;52.252;20.922;2023-03-12T15:38:15;6.50;;;1.80;;
61696;SDS011;47610;52.252;20.922;2023-03-12T15:43:19;4.60;;;2.00;;
61696;SDS011;47610;52.252;20.922;2023-03-12T15:48:26;3.40;;;1.80;;
61696;SDS011;47610;52.252;20.922;2023-03-12T15:53:35;5.90;;;1.90;;
61696;SDS011;47610;52.252;20.922;2023-03-12T15:58:39;5.60;;;2.00;;
61696;SDS011;47610;52.252;20.922;2023-03-12T16:03:44;6.50;;;1.90;;
61696;SDS011;47610;52.252;20.922;2023-03-12T16:08:49;5.30;;;1.90;;
61696;SDS011;47610;52.252;20.922;2023-03-12T16:13:57;6.80;;;2.40;;
61696;SDS011;47610;52.252;20.922;2023-03-12T16:19:12;4.10;;;2.10;;
61696;SDS011;47610;52.252;20.922;2023-03-12T16:24:17;5.00;;;2.40;;
61696;SDS011;47610;52.252;20.922;2023-03-12T16:29:20;7.00;;;2.90;;
61696;SDS011;47610;52.252;20.922;2023-03-12T16:34:28;6.40;;;2.60;;
61696;SDS011;47610;52.252;20.922;2023-03-12T16:39:31;10.90;;;4.40;;
61696;SDS011;47610;52.252;20.922;2023-03-12T16:44:34;6.90;;;3.20;;
61696;SDS011;47610;52.252;20.922;2023-03-12T16:49:37;7.60;;;3.70;;
61696;SDS011;47610;52.252;20.922;2023-03-12T16:54:41;8.90;;;4.10;;
61696;SDS011;47610;52.252;20.922;2023-03-12T16:59:44;8.80;;;4.40;;
61696;SDS011;47610;52.252;20.922;2023-03-12T17:04:47;10.00;;;4.10;;
61696;SDS011;47610;52.252;20.922;2023-03-12T17:09:51;10.10;;;4.80;;
61696;SDS011;47610;52.252;20.922;2023-03-12T17:14:55;9.40;;;4.50;;
61696;SDS011;47610;52.252;20.922;2023-03-12T17:20:01;9.70;;;4.10;;
61696;SDS011;47610;52.252;20.922;2023-03-12T17:25:09;9.10;;;4.60;;
61696;SDS011;47610;52.252;20.922;2023-03-12T17:30:21;7.10;;;4.00;;
61696;SDS011;47610;52.252;20.922;2023-03-12T17:35:26;11.70;;;4.00;;
61696;SDS011;47610;52.252;20.922;2023-03-12T17:40:29;11.00;;;4.50;;
61696;SDS011;47610;52.252;20.922;2023-03-12T17:45:32;12.90;;;5.50;;
61696;SDS011;47610;52.252;20.922;2023-03-12T17:50:36;8.70;;;4.30;;
61696;SDS011;47610;52.252;20.922;2023-03-12T17:55:40;10.80;;;4.50;;
61696;SDS011;47610;52.252;20.922;2023-03-12T18:00:43;9.30;;;4.50;;
61696;SDS011;47610;52.252;20.922;2023-03-12T18:05:46;10.50;;;5.20;;
61696;SDS011;47610;52.252;20.922;2023-03-12T18:10:51;12.10;;;5.00;;
61696;SDS011;47610;52.252;20.922;2023-03-12T18:15:55;9.30;;;4.20;;
61696;SDS011;47610;52.252;20.922;2023-03-12T18:21:00;9.60;;;4.50;;
61696;SDS011;47610;52.252;20.922;2023-03-12T18:26:04;10.60;;;4.80;;
61696;SDS011;47610;52.252;20.922;2023-03-12T18:31:08;10.00;;;4.40;;
61696;SDS011;47610;52.252;20.922;2023-03-12T18:36:11;11.60;;;5.50;;
61696;SDS011;47610;52.252;20.922;2023-03-12T18:41:14;10.10;;;5.40;;
61696;SDS011;47610;52.252;20.922;2023-03-12T18:46:17;15.00;;;6.10;;
61696;SDS011;47610;52.252;20.922;2023-03-12T18:51:20;12.10;;;5.50;;
61696;SDS011;47610;52.252;20.922;2023-03-12T18:56:24;10.80;;;6.00;;
61696;SDS011;47610;52.252;20.922;2023-03-12T19:01:27;17.30;;;7.90;;
61696;SDS011;47610;52.252;20.922;2023-03-12T19:06:30;19.50;;;8.80;;
61696;SDS011;47610;52.252;20.922;2023-03-12T19:11:33;19.50;;;9.10;;
61696;SDS011;47610;52.252;20.922;2023-03-12T19:16:37;24.70;;;9.80;;
61696;SDS011;47610;52.252;20.922;2023-03-12T19:21:40;15.40;;;9.30;;
61696;SDS011;47610;52.252;20.922;2023-03-12T19:26:43;21.40;;;10.30;;
61696;SDS011;47610;52.252;20.922;2023-03-12T19:31:46;20.50;;;9.30;;
61696;SDS011;47610;52.252;20.922;2023-03-12T19:36:50;18.40;;;9.90;;
61696;SDS011;47610;52.252;20.922;2023-03-12T19:41:53;18.40;;;8.10;;
61696;SDS011;47610;52.252;20.922;2023-03-12T19:46:56;15.70;;;8.60;;
61696;SDS011;47610;52.252;20.922;2023-03-12T19:52:00;16.10;;;7.30;;
61696;SDS011;47610;52.252;20.922;2023-03-12T19:57:04;15.00;;;7.20;;
61696;SDS011;47610;52.252;20.922;2023-03-12T20:02:08;18.90;;;7.10;;
61696;SDS011;47610;52.252;20.922;2023-03-12T20:07:16;17.70;;;8.40;;
61696;SDS011;47610;52.252;20.922;2023-03-12T20:12:20;16.00;;;7.70;;
61696;SDS011;47610;52.252;20.922;2023-03-12T20:17:24;17.00;;;8.30;;
61696;SDS011;47610;52.252;20.922;2023-03-12T20:22:28;14.60;;;7.20;;
61696;SDS011;47610;52.252;20.922;2023-03-12T20:27:31;17.60;;;8.20;;
61696;SDS011;47610;52.252;20.922;2023-03-12T20:32:35;18.40;;;8.60;;
61696;SDS011;47610;52.252;20.922;2023-03-12T20:37:38;19.40;;;9.10;;
61696;SDS011;47610;52.252;20.922;2023-03-12T20:42:43;15.80;;;7.90;;
61696;SDS011;47610;52.252;20.922;2023-03-12T20:47:48;16.40;;;7.40;;
61696;SDS011;47610;52.252;20.922;2023-03-12T20:52:51;13.70;;;7.70;;
61696;SDS011;47610;52.252;20.922;2023-03-12T20:57:57;15.30;;;8.70;;
61696;SDS011;47610;52.252;20.922;2023-03-12T21:03:03;14.50;;;7.20;;
61696;SDS011;47610;52.252;20.922;2023-03-12T21:08:06;18.20;;;8.80;;
61696;SDS011;47610;52.252;20.922;2023-03-12T21:13:09;18.30;;;8.40;;
61696;SDS011;47610;52.252;20.922;2023-03-12T21:18:12;17.10;;;8.80;;
61696;SDS011;47610;52.252;20.922;2023-03-12T21:23:19;17.00;;;7.60;;
61696;SDS011;47610;52.252;20.922;2023-03-12T21:28:22;17.60;;;9.10;;
61696;SDS011;47610;52.252;20.922;2023-03-12T21:33:25;14.80;;;8.40;;
61696;SDS011;47610;52.252;20.922;2023-03-12T21:38:28;15.40;;;8.10;;
61696;SDS011;47610;52.252;20.922;2023-03-12T21:43:32;18.70;;;8.90;;
61696;SDS011;47610;52.252;20.922;2023-03-12T21:48:36;23.00;;;9.50;;
61696;SDS011;47610;52.252;20.922;2023-03-12T21:53:41;18.50;;;8.80;;
61696;SDS011;47610;52.252;20.922;2023-03-12T21:58:47;13.40;;;7.60;;
61696;SDS011;47610;52.252;20.922;2023-03-12T22:03:50;16.80;;;7.70;;
61696;SDS011;47610;52.252;20.922;2023-03-12T22:08:56;15.80;;;8.10;;
61696;SDS011;47610;52.252;20.922;2023-03-12T22:14:02;18.10;;;9.10;;
61696;SDS011;47610;52.252;20.922;2023-03-12T22:19:05;15.10;;;6.80;;
61696;SDS011;47610;52.252;20.922;2023-03-12T22:24:08;14.30;;;8.10;;
61696;SDS011;47610;52.252;20.922;2023-03-12T22:29:12;14.00;;;7.20;;
61696;SDS011;47610;52.252;20.922;2023-03-12T22:34:17;14.60;;;8.00;;
61696;SDS011;47610;52.252;20.922;2023-03-12T22:39:20;15.70;;;8.20;;
61696;SDS011;47610;52.252;20.922;2023-03-12T22:44:24;20.80;;;9.70;;
61696;SDS011;47610;52.252;20.922;2023-03-12T22:49:28;12.80;;;7.00;;
61696;SDS011;47610;52.252;20.922;2023-03-12T22:54:32;16.20;;;9.40;;
61696;SDS011;47610;52.252;20.922;2023-03-12T22:59:36;22.20;;;10.10;;
61696;SDS011;47610;52.252;20.922;2023-03-12T23:04:39;19.20;;;9.30;;
61696;SDS011;47610;52.252;20.922;2023-03-12T23:09:43;16.50;;;9.10;;
61696;SDS011;47610;52.252;20.922;2023-03-12T23:14:48;18.20;;;8.40;;
61696;SDS011;47610;52.252;20.922;2023-03-12T23:19:51;17.50;;;8.90;;
61696;SDS011;47610;52.252;20.922;2023-03-12T23:24:54;20.20;;;9.90;;
61696;SDS011;47610;52.252;20.922;2023-03-12T23:29:57;18.00;;;9.40;;
61696;SDS011;47610;52.252;20.922;2023-03-12T23:35:01;19.60;;;10.00;;
61696;SDS011;47610;52.252;20.922;2023-03-12T23:40:07;17.30;;;8.90;;
61696;SDS011;47610;52.252;20.922;2023-03-12T23:45:17;15.70;;;8.90;;
61696;SDS011;47610;52.252;20.922;2023-03-12T23:55:24;16.40;;;8.00;;
